sensor_id;sensor_type;location;lat;lon;timestamp;pressure;altitude;pressure_sealevel;temperature;humidity
62634;BME280;48704;50.534;6.442;2024-03-22T00:00:27;96133.50;;;7.29;100.00
62634;BME280;48704;50.534;6.442;2024-03-22T00:02:53;96123.19;;;7.29;100.00
62634;BME280;48704;50.534;6.442;2024-03-22T00:05:18;96128.63;;;7.33;100.00
62634;BME280;48704;50.534;6.442;2024-03-22T00:07:46;96130.38;;;7.27;100.00
62634;BME280;48704;50.534;6.442;2024-03-22T00:10:11;96122.97;;;7.36;100.00
62634;BME280;48704;50.534;6.442;2024-03-22T00:12:36;96124.41;;;7.28;100.00
62634;BME280;48704;50.534;6.442;2024-03-22T00:15:02;96130.94;;;7.34;100.00
62634;BME280;48704;50.534;6.442;2024-03-22T00:17:27;96131.03;;;7.44;100.00
62634;BME280;48704;50.534;6.442;2024-03-22T00:19:52;96124.84;;;7.52;100.00
62634;BME280;48704;50.534;6.442;2024-03-22T00:22:18;96123.06;;;7.71;100.00
62634;BME280;48704;50.534;6.442;2024-03-22T00:24:43;96127.25;;;7.76;100.00
62634;BME280;48704;50.534;6.442;2024-03-22T00:27:08;96122.22;;;7.83;100.00
62634;BME280;48704;50.534;6.442;2024-03-22T00:29:33;96115.47;;;7.84;100.00
62634;BME280;48704;50.534;6.442;2024-03-22T00:31:59;96115.69;;;7.90;100.00
62634;BME280;48704;50.534;6.442;2024-03-22T00:34:25;96117.47;;;7.84;100.00
62634;BME280;48704;50.534;6.442;2024-03-22T00:36:50;96123.00;;;7.84;100.00
62634;BME280;48704;50.534;6.442;2024-03-22T00:39:16;96115.78;;;7.86;100.00
62634;BME280;48704;50.534;6.442;2024-03-22T00:41:41;96105.03;;;7.88;100.00
62634;BME280;48704;50.534;6.442;2024-03-22T00:44:07;96109.03;;;7.87;100.00
62634;BME280;48704;50.534;6.442;2024-03-22T00:46:32;96112.69;;;7.84;100.00
62634;BME280;48704;50.534;6.442;2024-03-22T00:48:57;96104.03;;;7.82;100.00
62634;BME280;48704;50.534;6.442;2024-03-22T00:51:23;96098.25;;;7.89;100.00
62634;BME280;48704;50.534;6.442;2024-03-22T00:53:49;96095.16;;;7.87;100.00
62634;BME280;48704;50.534;6.442;2024-03-22T00:56:14;96085.59;;;7.88;100.00
62634;BME280;48704;50.534;6.442;2024-03-22T00:58:39;96090.16;;;7.82;100.00
62634;BME280;48704;50.534;6.442;2024-03-22T01:01:04;96088.72;;;7.90;100.00
62634;BME280;48704;50.534;6.442;2024-03-22T01:03:30;96096.03;;;7.84;100.00
62634;BME280;48704;50.534;6.442;2024-03-22T01:05:55;96087.66;;;7.75;100.00
62634;BME280;48704;50.534;6.442;2024-03-22T01:08:22;96083.66;;;7.76;100.00
62634;BME280;48704;50.534;6.442;2024-03-22T01:10:47;96076.94;;;7.86;100.00
62634;BME280;48704;50.534;6.442;2024-03-22T01:13:13;96076.06;;;7.89;100.00
62634;BME280;48704;50.534;6.442;2024-03-22T01:15:38;96066.19;;;7.88;100.00
62634;BME280;48704;50.534;6.442;2024-03-22T01:18:03;96067.41;;;7.87;100.00
62634;BME280;48704;50.534;6.442;2024-03-22T01:20:29;96063.41;;;7.88;100.00
62634;BME280;48704;50.534;6.442;2024-03-22T01:22:54;96059.91;;;7.75;100.00
62634;BME280;48704;50.534;6.442;2024-03-22T01:25:20;96059.91;;;7.75;100.00
62634;BME280;48704;50.534;6.442;2024-03-22T01:27:45;96059.59;;;7.73;100.00
62634;BME280;48704;50.534;6.442;2024-03-22T01:30:11;96053.78;;;7.80;100.00
62634;BME280;48704;50.534;6.442;2024-03-22T01:32:37;96053.31;;;7.82;100.00
62634;BME280;48704;50.534;6.442;2024-03-22T01:35:02;96046.03;;;7.75;100.00
62634;BME280;48704;50.534;6.442;2024-03-22T01:37:27;96039.28;;;7.76;100.00
62634;BME280;48704;50.534;6.442;2024-03-22T01:39:53;96044.81;;;7.76;100.00
62634;BME280;48704;50.534;6.442;2024-03-22T01:42:18;96031.91;;;7.82;100.00
62634;BME280;48704;50.534;6.442;2024-03-22T01:44:43;96032.81;;;7.79;100.00
62634;BME280;48704;50.534;6.442;2024-03-22T01:47:08;96029.72;;;7.77;100.00
62634;BME280;48704;50.534;6.442;2024-03-22T01:49:34;96029.84;;;7.74;100.00
62634;BME280;48704;50.534;6.442;2024-03-22T01:52:00;96025.72;;;7.78;100.00
62634;BME280;48704;50.534;6.442;2024-03-22T01:54:25;96023.25;;;7.80;100.00
62634;BME280;48704;50.534;6.442;2024-03-22T01:56:50;96025.28;;;7.80;100.00
62634;BME280;48704;50.534;6.442;2024-03-22T01:59:16;96023.91;;;7.84;100.00
62634;BME280;48704;50.534;6.442;2024-03-22T02:01:42;96018.25;;;7.88;100.00
62634;BME280;48704;50.534;6.442;2024-03-22T02:04:08;96022.50;;;7.80;100.00
62634;BME280;48704;50.534;6.442;2024-03-22T02:06:33;96015.84;;;7.77;100.00
62634;BME280;48704;50.534;6.442;2024-03-22T02:08:58;96015.91;;;7.86;100.00
62634;BME280;48704;50.534;6.442;2024-03-22T02:11:25;96011.34;;;7.92;100.00
62634;BME280;48704;50.534;6.442;2024-03-22T02:13:51;96003.91;;;7.89;100.00
62634;BME280;48704;50.534;6.442;2024-03-22T02:16:16;95995.25;;;7.87;100.00
62634;BME280;48704;50.534;6.442;2024-03-22T02:18:42;95997.59;;;7.89;100.00
62634;BME280;48704;50.534;6.442;2024-03-22T02:21:07;95987.59;;;7.91;100.00
62634;BME280;48704;50.534;6.442;2024-03-22T02:23:33;95983.38;;;7.87;100.00
62634;BME280;48704;50.534;6.442;2024-03-22T02:26:00;95980.50;;;7.90;100.00
62634;BME280;48704;50.534;6.442;2024-03-22T02:28:25;95970.81;;;7.95;100.00
62634;BME280;48704;50.534;6.442;2024-03-22T02:30:50;95980.56;;;7.99;100.00
62634;BME280;48704;50.534;6.442;2024-03-22T02:33:16;95978.13;;;8.01;100.00
62634;BME280;48704;50.534;6.442;2024-03-22T02:35:42;95976.69;;;7.97;100.00
62634;BME280;48704;50.534;6.442;2024-03-22T02:38:07;95975.66;;;8.03;100.00
62634;BME280;48704;50.534;6.442;2024-03-22T02:40:32;95968.31;;;8.10;100.00
62634;BME280;48704;50.534;6.442;2024-03-22T02:42:58;95970.50;;;8.15;100.00
62634;BME280;48704;50.534;6.442;2024-03-22T02:45:23;95976.19;;;8.11;100.00
62634;BME280;48704;50.534;6.442;2024-03-22T02:47:48;95971.00;;;8.22;100.00
62634;BME280;48704;50.534;6.442;2024-03-22T02:50:13;95967.13;;;8.20;100.00
62634;BME280;48704;50.534;6.442;2024-03-22T02:52:39;95963.41;;;8.14;100.00
62634;BME280;48704;50.534;6.442;2024-03-22T02:55:04;95962.31;;;8.11;100.00
62634;BME280;48704;50.534;6.442;2024-03-22T02:57:29;95956.56;;;8.05;100.00
62634;BME280;48704;50.534;6.442;2024-03-22T02:59:55;95942.38;;;8.03;100.00
62634;BME280;48704;50.534;6.442;2024-03-22T03:02:20;95935.13;;;8.06;100.00
62634;BME280;48704;50.534;6.442;2024-03-22T03:04:45;95936.25;;;8.09;100.00
62634;BME280;48704;50.534;6.442;2024-03-22T03:07:10;95934.22;;;8.09;100.00
62634;BME280;48704;50.534;6.442;2024-03-22T03:09:36;95934.09;;;8.13;100.00
62634;BME280;48704;50.534;6.442;2024-03-22T03:12:01;95937.34;;;8.11;100.00
62634;BME280;48704;50.534;6.442;2024-03-22T03:14:26;95941.97;;;8.14;100.00
62634;BME280;48704;50.534;6.442;2024-03-22T03:16:51;95953.56;;;8.22;100.00
62634;BME280;48704;50.534;6.442;2024-03-22T03:19:17;95948.66;;;8.26;100.00
62634;BME280;48704;50.534;6.442;2024-03-22T03:21:42;95940.78;;;8.24;100.00
62634;BME280;48704;50.534;6.442;2024-03-22T03:24:07;95937.81;;;8.19;100.00
62634;BME280;48704;50.534;6.442;2024-03-22T03:26:34;95926.72;;;8.19;100.00
62634;BME280;48704;50.534;6.442;2024-03-22T03:28:59;95932.91;;;8.23;100.00
62634;BME280;48704;50.534;6.442;2024-03-22T03:31:25;95936.66;;;8.29;100.00
62634;BME280;48704;50.534;6.442;2024-03-22T03:33:50;95936.34;;;8.27;100.00
62634;BME280;48704;50.534;6.442;2024-03-22T03:36:15;95926.13;;;8.24;100.00
62634;BME280;48704;50.534;6.442;2024-03-22T03:38:40;95921.69;;;8.26;100.00
62634;BME280;48704;50.534;6.442;2024-03-22T03:41:06;95925.22;;;8.27;100.00
62634;BME280;48704;50.534;6.442;2024-03-22T03:43:32;95917.88;;;8.33;100.00
62634;BME280;48704;50.534;6.442;2024-03-22T03:45:57;95920.56;;;8.24;100.00
62634;BME280;48704;50.534;6.442;2024-03-22T03:48:22;95913.66;;;8.28;100.00
62634;BME280;48704;50.534;6.442;2024-03-22T03:50:54;95916.00;;;8.30;100.00
62634;BME280;48704;50.534;6.442;2024-03-22T03:53:21;95908.50;;;8.40;100.00
62634;BME280;48704;50.534;6.442;2024-03-22T03:55:46;95916.38;;;8.41;100.00
62634;BME280;48704;50.534;6.442;2024-03-22T03:58:11;95917.66;;;8.49;100.00
62634;BME280;48704;50.534;6.442;2024-03-22T04:00:37;95910.91;;;8.59;100.00
62634;BME280;48704;50.534;6.442;2024-03-22T04:03:02;95906.28;;;8.65;100.00
62634;BME280;48704;50.534;6.442;2024-03-22T04:05:27;95895.69;;;8.73;100.00
62634;BME280;48704;50.534;6.442;2024-03-22T04:07:53;95902.28;;;8.66;100.00
62634;BME280;48704;50.534;6.442;2024-03-22T04:10:19;95903.38;;;8.69;100.00
62634;BME280;48704;50.534;6.442;2024-03-22T04:12:44;95899.50;;;8.66;100.00
62634;BME280;48704;50.534;6.442;2024-03-22T04:15:10;95899.22;;;8.74;100.00
62634;BME280;48704;50.534;6.442;2024-03-22T04:17:35;95897.53;;;8.76;100.00
62634;BME280;48704;50.534;6.442;2024-03-22T04:20:01;95896.00;;;8.75;100.00
62634;BME280;48704;50.534;6.442;2024-03-22T04:22:27;95895.84;;;8.79;100.00
62634;BME280;48704;50.534;6.442;2024-03-22T04:24:52;95897.41;;;8.80;100.00
62634;BME280;48704;50.534;6.442;2024-03-22T04:27:18;95907.88;;;8.76;100.00
62634;BME280;48704;50.534;6.442;2024-03-22T04:29:47;95889.81;;;8.71;100.00
62634;BME280;48704;50.534;6.442;2024-03-22T04:32:12;95893.34;;;8.71;100.00
62634;BME280;48704;50.534;6.442;2024-03-22T04:34:41;95882.69;;;8.70;100.00
62634;BME280;48704;50.534;6.442;2024-03-22T04:37:07;95881.94;;;8.69;100.00
62634;BME280;48704;50.534;6.442;2024-03-22T04:39:32;95885.94;;;8.68;100.00
62634;BME280;48704;50.534;6.442;2024-03-22T04:41:57;95880.53;;;8.65;100.00
62634;BME280;48704;50.534;6.442;2024-03-22T04:44:22;95877.16;;;8.70;100.00
62634;BME280;48704;50.534;6.442;2024-03-22T04:46:48;95876.38;;;8.69;100.00
62634;BME280;48704;50.534;6.442;2024-03-22T04:49:13;95870.97;;;8.66;100.00
62634;BME280;48704;50.534;6.442;2024-03-22T04:51:38;95869.56;;;8.61;100.00
62634;BME280;48704;50.534;6.442;2024-03-22T04:54:04;95865.53;;;8.62;100.00
62634;BME280;48704;50.534;6.442;2024-03-22T04:56:29;95865.81;;;8.55;100.00
62634;BME280;48704;50.534;6.442;2024-03-22T04:58:55;95867.06;;;8.54;100.00
62634;BME280;48704;50.534;6.442;2024-03-22T05:01:20;95870.41;;;8.40;100.00
62634;BME280;48704;50.534;6.442;2024-03-22T05:03:45;95870.47;;;8.49;100.00
62634;BME280;48704;50.534;6.442;2024-03-22T05:06:11;95872.00;;;8.50;100.00
62634;BME280;48704;50.534;6.442;2024-03-22T05:08:36;95868.16;;;8.57;100.00
62634;BME280;48704;50.534;6.442;2024-03-22T05:11:01;95868.00;;;8.51;100.00
62634;BME280;48704;50.534;6.442;2024-03-22T05:13:28;95863.03;;;8.46;100.00
62634;BME280;48704;50.534;6.442;2024-03-22T05:15:53;95858.44;;;8.52;100.00
62634;BME280;48704;50.534;6.442;2024-03-22T05:18:19;95845.91;;;8.48;100.00
62634;BME280;48704;50.534;6.442;2024-03-22T05:20:44;95845.78;;;8.51;100.00
62634;BME280;48704;50.534;6.442;2024-03-22T05:23:09;95840.69;;;8.50;100.00
62634;BME280;48704;50.534;6.442;2024-03-22T05:25:34;95841.59;;;8.47;100.00
62634;BME280;48704;50.534;6.442;2024-03-22T05:28:00;95847.28;;;8.43;100.00
62634;BME280;48704;50.534;6.442;2024-03-22T05:30:26;95851.63;;;8.44;100.00
62634;BME280;48704;50.534;6.442;2024-03-22T05:32:51;95830.16;;;8.45;100.00
62634;BME280;48704;50.534;6.442;2024-03-22T05:35:16;95842.50;;;8.44;100.00
62634;BME280;48704;50.534;6.442;2024-03-22T05:37:43;95846.38;;;8.46;100.00
62634;BME280;48704;50.534;6.442;2024-03-22T05:40:09;95844.19;;;8.41;100.00
62634;BME280;48704;50.534;6.442;2024-03-22T05:42:35;95838.00;;;8.37;100.00
62634;BME280;48704;50.534;6.442;2024-03-22T05:45:00;95837.69;;;8.35;100.00
62634;BME280;48704;50.534;6.442;2024-03-22T05:47:25;95835.69;;;8.35;100.00
62634;BME280;48704;50.534;6.442;2024-03-22T05:49:51;95835.78;;;8.32;100.00
62634;BME280;48704;50.534;6.442;2024-03-22T05:52:17;95834.00;;;8.38;100.00
62634;BME280;48704;50.534;6.442;2024-03-22T05:54:42;95835.41;;;8.43;100.00
62634;BME280;48704;50.534;6.442;2024-03-22T05:57:08;95816.28;;;8.45;100.00
62634;BME280;48704;50.534;6.442;2024-03-22T05:59:33;95818.59;;;8.46;100.00
62634;BME280;48704;50.534;6.442;2024-03-22T06:01:59;95815.38;;;8.48;100.00
62634;BME280;48704;50.534;6.442;2024-03-22T06:04:25;95807.34;;;8.50;100.00
62634;BME280;48704;50.534;6.442;2024-03-22T06:06:50;95809.69;;;8.51;100.00
62634;BME280;48704;50.534;6.442;2024-03-22T06:09:16;95805.66;;;8.52;100.00
62634;BME280;48704;50.534;6.442;2024-03-22T06:11:50;95809.69;;;8.51;100.00
62634;BME280;48704;50.534;6.442;2024-03-22T06:14:15;95807.22;;;8.53;100.00
62634;BME280;48704;50.534;6.442;2024-03-22T06:16:40;95794.56;;;8.52;100.00
62634;BME280;48704;50.534;6.442;2024-03-22T06:19:05;95791.47;;;8.50;100.00
62634;BME280;48704;50.534;6.442;2024-03-22T06:21:31;95792.38;;;8.47;100.00
62634;BME280;48704;50.534;6.442;2024-03-22T06:23:56;95801.03;;;8.49;100.00
62634;BME280;48704;50.534;6.442;2024-03-22T06:26:21;95790.84;;;8.46;100.00
62634;BME280;48704;50.534;6.442;2024-03-22T06:28:47;95781.28;;;8.47;100.00
62634;BME280;48704;50.534;6.442;2024-03-22T06:31:12;95781.59;;;8.49;100.00
62634;BME280;48704;50.534;6.442;2024-03-22T06:33:37;95765.25;;;8.51;100.00
62634;BME280;48704;50.534;6.442;2024-03-22T06:36:03;95774.81;;;8.50;100.00
62634;BME280;48704;50.534;6.442;2024-03-22T06:38:28;95772.03;;;8.59;100.00
62634;BME280;48704;50.534;6.442;2024-03-22T06:40:54;95767.72;;;8.67;100.00
62634;BME280;48704;50.534;6.442;2024-03-22T06:43:19;95769.13;;;8.72;100.00
62634;BME280;48704;50.534;6.442;2024-03-22T06:45:44;95763.09;;;8.74;100.00
62634;BME280;48704;50.534;6.442;2024-03-22T06:48:10;95770.38;;;8.80;100.00
62634;BME280;48704;50.534;6.442;2024-03-22T06:50:35;95771.75;;;8.85;100.00
62634;BME280;48704;50.534;6.442;2024-03-22T06:53:00;95770.66;;;8.91;100.00
62634;BME280;48704;50.534;6.442;2024-03-22T06:55:25;95782.09;;;8.93;100.00
62634;BME280;48704;50.534;6.442;2024-03-22T06:57:51;95774.69;;;9.09;100.00
62634;BME280;48704;50.534;6.442;2024-03-22T07:00:18;95780.09;;;9.12;100.00
62634;BME280;48704;50.534;6.442;2024-03-22T07:02:43;95775.31;;;9.22;100.00
62634;BME280;48704;50.534;6.442;2024-03-22T07:05:10;95765.28;;;9.24;100.00
62634;BME280;48704;50.534;6.442;2024-03-22T07:07:35;95756.31;;;9.20;100.00
62634;BME280;48704;50.534;6.442;2024-03-22T07:10:04;95764.66;;;9.20;100.00
62634;BME280;48704;50.534;6.442;2024-03-22T07:12:32;95760.47;;;9.25;100.00
62634;BME280;48704;50.534;6.442;2024-03-22T07:14:59;95760.28;;;9.28;100.00
62634;BME280;48704;50.534;6.442;2024-03-22T07:17:25;95765.53;;;9.35;100.00
62634;BME280;48704;50.534;6.442;2024-03-22T07:19:51;95776.06;;;9.31;100.00
62634;BME280;48704;50.534;6.442;2024-03-22T07:22:17;95768.38;;;9.26;100.00
62634;BME280;48704;50.534;6.442;2024-03-22T07:24:42;95769.91;;;9.27;100.00
62634;BME280;48704;50.534;6.442;2024-03-22T07:27:07;95770.06;;;9.24;100.00
62634;BME280;48704;50.534;6.442;2024-03-22T07:29:33;95764.63;;;9.38;100.00
62634;BME280;48704;50.534;6.442;2024-03-22T07:31:58;95758.44;;;9.44;100.00
62634;BME280;48704;50.534;6.442;2024-03-22T07:34:24;95763.06;;;9.37;100.00
62634;BME280;48704;50.534;6.442;2024-03-22T07:36:49;95751.31;;;9.43;100.00
62634;BME280;48704;50.534;6.442;2024-03-22T07:39:15;95746.06;;;9.45;100.00
62634;BME280;48704;50.534;6.442;2024-03-22T07:41:40;95746.38;;;9.37;100.00
62634;BME280;48704;50.534;6.442;2024-03-22T07:44:05;95750.09;;;9.44;100.00
62634;BME280;48704;50.534;6.442;2024-03-22T07:46:31;95750.38;;;9.64;100.00
62634;BME280;48704;50.534;6.442;2024-03-22T07:48:56;95740.28;;;9.66;100.00
62634;BME280;48704;50.534;6.442;2024-03-22T07:51:22;95746.31;;;9.74;100.00
62634;BME280;48704;50.534;6.442;2024-03-22T07:53:47;95744.59;;;9.77;100.00
62634;BME280;48704;50.534;6.442;2024-03-22T07:56:12;95745.66;;;9.79;100.00
62634;BME280;48704;50.534;6.442;2024-03-22T07:58:38;95740.41;;;9.81;100.00
62634;BME280;48704;50.534;6.442;2024-03-22T08:01:04;95754.59;;;9.92;100.00
62634;BME280;48704;50.534;6.442;2024-03-22T08:03:29;95742.84;;;9.97;100.00
62634;BME280;48704;50.534;6.442;2024-03-22T08:05:54;95748.81;;;10.05;100.00
62634;BME280;48704;50.534;6.442;2024-03-22T08:08:20;95742.66;;;10.01;100.00
62634;BME280;48704;50.534;6.442;2024-03-22T08:10:45;95744.94;;;10.02;100.00
62634;BME280;48704;50.534;6.442;2024-03-22T08:13:10;95734.72;;;10.09;100.00
62634;BME280;48704;50.534;6.442;2024-03-22T08:15:36;95734.09;;;10.14;100.00
62634;BME280;48704;50.534;6.442;2024-03-22T08:18:01;95747.81;;;10.26;100.00
62634;BME280;48704;50.534;6.442;2024-03-22T08:20:27;95740.25;;;10.18;100.00
62634;BME280;48704;50.534;6.442;2024-03-22T08:22:53;95741.97;;;10.24;100.00
62634;BME280;48704;50.534;6.442;2024-03-22T08:25:19;95734.09;;;10.14;100.00
62634;BME280;48704;50.534;6.442;2024-03-22T08:27:45;95733.19;;;10.07;100.00
62634;BME280;48704;50.534;6.442;2024-03-22T08:30:11;95739.03;;;10.10;100.00
62634;BME280;48704;50.534;6.442;2024-03-22T08:32:37;95733.81;;;10.02;100.00
62634;BME280;48704;50.534;6.442;2024-03-22T08:35:02;95727.50;;;10.02;100.00
62634;BME280;48704;50.534;6.442;2024-03-22T08:37:29;95728.25;;;10.02;100.00
62634;BME280;48704;50.534;6.442;2024-03-22T08:39:54;95719.44;;;10.04;100.00
62634;BME280;48704;50.534;6.442;2024-03-22T08:42:20;95726.59;;;9.96;100.00
62634;BME280;48704;50.534;6.442;2024-03-22T08:44:45;95717.66;;;9.92;100.00
62634;BME280;48704;50.534;6.442;2024-03-22T08:47:10;95721.81;;;9.96;100.00
62634;BME280;48704;50.534;6.442;2024-03-22T08:49:35;95710.44;;;10.09;100.00
62634;BME280;48704;50.534;6.442;2024-03-22T08:52:01;95720.91;;;9.90;100.00
62634;BME280;48704;50.534;6.442;2024-03-22T08:54:27;95711.31;;;9.91;100.00
62634;BME280;48704;50.534;6.442;2024-03-22T08:56:52;95707.28;;;9.92;100.00
62634;BME280;48704;50.534;6.442;2024-03-22T08:59:18;95695.97;;;9.96;100.00
62634;BME280;48704;50.534;6.442;2024-03-22T09:01:43;95698.28;;;9.97;100.00
62634;BME280;48704;50.534;6.442;2024-03-22T09:04:08;95699.47;;;10.05;100.00
62634;BME280;48704;50.534;6.442;2024-03-22T09:06:33;95700.72;;;10.04;100.00
62634;BME280;48704;50.534;6.442;2024-03-22T09:08:59;95706.88;;;10.09;100.00
62634;BME280;48704;50.534;6.442;2024-03-22T09:11:24;95708.13;;;10.07;100.00
62634;BME280;48704;50.534;6.442;2024-03-22T09:13:53;95706.06;;;10.17;100.00
62634;BME280;48704;50.534;6.442;2024-03-22T09:16:23;95700.66;;;10.14;100.00
62634;BME280;48704;50.534;6.442;2024-03-22T09:18:49;95695.69;;;10.18;100.00
62634;BME280;48704;50.534;6.442;2024-03-22T09:21:14;95706.00;;;10.35;100.00
62634;BME280;48704;50.534;6.442;2024-03-22T09:23:40;95702.66;;;10.46;100.00
62634;BME280;48704;50.534;6.442;2024-03-22T09:26:05;95703.56;;;10.52;100.00
62634;BME280;48704;50.534;6.442;2024-03-22T09:28:31;95699.47;;;10.62;100.00
62634;BME280;48704;50.534;6.442;2024-03-22T09:30:56;95705.28;;;10.74;100.00
62634;BME280;48704;50.534;6.442;2024-03-22T09:33:22;95701.19;;;10.60;100.00
62634;BME280;48704;50.534;6.442;2024-03-22T09:35:47;95689.22;;;10.68;100.00
62634;BME280;48704;50.534;6.442;2024-03-22T09:38:12;95689.34;;;10.50;100.00
62634;BME280;48704;50.534;6.442;2024-03-22T09:40:38;95693.59;;;10.60;100.00
62634;BME280;48704;50.534;6.442;2024-03-22T09:43:07;95701.91;;;10.69;100.00
62634;BME280;48704;50.534;6.442;2024-03-22T09:45:33;95686.91;;;10.82;100.00
62634;BME280;48704;50.534;6.442;2024-03-22T09:47:59;95682.34;;;10.93;100.00
62634;BME280;48704;50.534;6.442;2024-03-22T09:50:26;95683.88;;;10.94;100.00
62634;BME280;48704;50.534;6.442;2024-03-22T09:52:55;95690.44;;;11.06;100.00
62634;BME280;48704;50.534;6.442;2024-03-22T09:55:24;95699.69;;;11.12;100.00
62634;BME280;48704;50.534;6.442;2024-03-22T09:57:50;95690.25;;;11.24;100.00
62634;BME280;48704;50.534;6.442;2024-03-22T10:00:18;95679.69;;;11.28;100.00
62634;BME280;48704;50.534;6.442;2024-03-22T10:02:46;95681.81;;;11.33;100.00
62634;BME280;48704;50.534;6.442;2024-03-22T10:05:11;95687.97;;;11.37;100.00
62634;BME280;48704;50.534;6.442;2024-03-22T10:07:37;95680.25;;;11.18;100.00
62634;BME280;48704;50.534;6.442;2024-03-22T10:10:03;95689.09;;;11.16;100.00
62634;BME280;48704;50.534;6.442;2024-03-22T10:12:28;95681.22;;;11.29;100.00
62634;BME280;48704;50.534;6.442;2024-03-22T10:14:54;95682.66;;;11.10;100.00
62634;BME280;48704;50.534;6.442;2024-03-22T10:17:20;95682.56;;;11.19;100.00
62634;BME280;48704;50.534;6.442;2024-03-22T10:19:45;95672.56;;;11.27;100.00
62634;BME280;48704;50.534;6.442;2024-03-22T10:22:10;95669.88;;;11.18;100.00
62634;BME280;48704;50.534;6.442;2024-03-22T10:24:36;95673.06;;;11.11;100.00
62634;BME280;48704;50.534;6.442;2024-03-22T10:27:01;95665.06;;;11.04;100.00
62634;BME280;48704;50.534;6.442;2024-03-22T10:29:27;95671.41;;;11.04;100.00
62634;BME280;48704;50.534;6.442;2024-03-22T10:31:53;95668.09;;;10.91;100.00
62634;BME280;48704;50.534;6.442;2024-03-22T10:34:21;95666.59;;;11.05;100.00
62634;BME280;48704;50.534;6.442;2024-03-22T10:36:46;95664.19;;;11.27;100.00
62634;BME280;48704;50.534;6.442;2024-03-22T10:39:15;95662.38;;;11.24;100.00
62634;BME280;48704;50.534;6.442;2024-03-22T10:41:42;95670.94;;;11.21;100.00
62634;BME280;48704;50.534;6.442;2024-03-22T10:44:07;95665.06;;;11.04;100.00
62634;BME280;48704;50.534;6.442;2024-03-22T10:46:34;95653.81;;;11.13;100.00
62634;BME280;48704;50.534;6.442;2024-03-22T10:49:02;95646.22;;;11.28;100.00
62634;BME280;48704;50.534;6.442;2024-03-22T10:51:30;95651.78;;;11.28;100.00
62634;BME280;48704;50.534;6.442;2024-03-22T10:53:58;95651.59;;;11.17;100.00
62634;BME280;48704;50.534;6.442;2024-03-22T10:56:24;95650.03;;;11.16;100.00
62634;BME280;48704;50.534;6.442;2024-03-22T10:58:50;95642.09;;;11.09;100.00
62634;BME280;48704;50.534;6.442;2024-03-22T11:01:24;95640.06;;;11.24;100.00
62634;BME280;48704;50.534;6.442;2024-03-22T11:03:50;95641.97;;;11.18;100.00
62634;BME280;48704;50.534;6.442;2024-03-22T11:06:19;95636.19;;;11.22;100.00
62634;BME280;48704;50.534;6.442;2024-03-22T11:08:50;95633.13;;;11.34;100.00
62634;BME280;48704;50.534;6.442;2024-03-22T11:11:17;95638.91;;;11.46;100.00
62634;BME280;48704;50.534;6.442;2024-03-22T11:13:43;95632.38;;;11.34;100.00
62634;BME280;48704;50.534;6.442;2024-03-22T11:16:11;95631.00;;;11.29;100.00
62634;BME280;48704;50.534;6.442;2024-03-22T11:18:36;95628.22;;;11.29;100.00
62634;BME280;48704;50.534;6.442;2024-03-22T11:21:02;95622.75;;;11.20;100.00
62634;BME280;48704;50.534;6.442;2024-03-22T11:23:28;95629.56;;;11.19;100.00
62634;BME280;48704;50.534;6.442;2024-03-22T11:25:53;95613.91;;;11.07;100.00
62634;BME280;48704;50.534;6.442;2024-03-22T11:28:19;95627.44;;;11.14;100.00
62634;BME280;48704;50.534;6.442;2024-03-22T11:30:45;95616.59;;;11.01;100.00
62634;BME280;48704;50.534;6.442;2024-03-22T11:33:10;95617.38;;;11.02;100.00
62634;BME280;48704;50.534;6.442;2024-03-22T11:35:35;95616.59;;;11.16;100.00
62634;BME280;48704;50.534;6.442;2024-03-22T11:38:01;95610.44;;;11.12;100.00
62634;BME280;48704;50.534;6.442;2024-03-22T11:40:26;95603.13;;;11.29;100.00
62634;BME280;48704;50.534;6.442;2024-03-22T11:42:55;95597.34;;;11.33;100.00
62634;BME280;48704;50.534;6.442;2024-03-22T11:45:22;95600.63;;;11.31;100.00
62634;BME280;48704;50.534;6.442;2024-03-22T11:47:48;95602.53;;;11.25;100.00
62634;BME280;48704;50.534;6.442;2024-03-22T11:50:14;95604.47;;;11.19;100.00
62634;BME280;48704;50.534;6.442;2024-03-22T11:52:43;95595.44;;;11.24;100.00
62634;BME280;48704;50.534;6.442;2024-03-22T11:55:12;95602.53;;;11.25;100.00
62634;BME280;48704;50.534;6.442;2024-03-22T11:57:37;95592.25;;;11.17;100.00
62634;BME280;48704;50.534;6.442;2024-03-22T12:00:04;95592.53;;;11.19;100.00
62634;BME280;48704;50.534;6.442;2024-03-22T12:02:34;95586.59;;;11.11;100.00
62634;BME280;48704;50.534;6.442;2024-03-22T12:05:00;95589.59;;;11.08;100.00
62634;BME280;48704;50.534;6.442;2024-03-22T12:07:25;95581.78;;;11.12;100.00
62634;BME280;48704;50.534;6.442;2024-03-22T12:09:51;95572.09;;;11.07;100.00
62634;BME280;48704;50.534;6.442;2024-03-22T12:12:17;95569.00;;;11.05;100.00
62634;BME280;48704;50.534;6.442;2024-03-22T12:14:42;95574.66;;;11.25;100.00
62634;BME280;48704;50.534;6.442;2024-03-22T12:17:08;95573.09;;;11.39;100.00
62634;BME280;48704;50.534;6.442;2024-03-22T12:19:34;95556.94;;;11.28;100.00
62634;BME280;48704;50.534;6.442;2024-03-22T12:22:00;95551.47;;;11.34;100.00
62634;BME280;48704;50.534;6.442;2024-03-22T12:24:26;95548.09;;;11.15;100.00
62634;BME280;48704;50.534;6.442;2024-03-22T12:26:55;95545.59;;;11.17;100.00
62634;BME280;48704;50.534;6.442;2024-03-22T12:29:20;95540.22;;;11.28;100.00
62634;BME280;48704;50.534;6.442;2024-03-22T12:31:46;95538.03;;;11.53;100.00
62634;BME280;48704;50.534;6.442;2024-03-22T12:34:12;95530.44;;;11.88;100.00
62634;BME280;48704;50.534;6.442;2024-03-22T12:36:37;95535.19;;;12.02;100.00
62634;BME280;48704;50.534;6.442;2024-03-22T12:39:03;95527.50;;;11.97;100.00
62634;BME280;48704;50.534;6.442;2024-03-22T12:41:28;95523.63;;;12.35;100.00
62634;BME280;48704;50.534;6.442;2024-03-22T12:43:55;95524.66;;;12.84;100.00
62634;BME280;48704;50.534;6.442;2024-03-22T12:46:20;95522.53;;;13.31;99.65
62634;BME280;48704;50.534;6.442;2024-03-22T12:48:45;95507.50;;;13.28;97.19